Parafrase — AAAAAAA — position and weather

sailwx.info

Track history (hours):
 
Tides and Currents Weather Stations Pressure Air Temp Water Temp Dewpoint Dewpoint Depression Visibility Wind Speed Wind Dir Waves Ship Positions

Parafrase

Last reported at 2018-Sep-23 02:35 UTC. Time now 2018-Sep-23 04:44 UTC.
Position N 43°42' E 007°19'.

Length 13 m.

Type: Sailing vessel. MMSI: 227214510.

Date/timePositionNaut miles runAvg speedWind from/ knotsBaromVisibWave heightAir tempDewpointWater temp
2018-Sep-23 02:35N 43°42' E 007°19'0 0.0
2018-Sep-23 02:29N 43°42' E 007°19'0 0.0
2018-Sep-23 01:59N 43°42' E 007°19'0 0.0
2018-Sep-23 01:14N 43°42' E 007°19'0 0.0
2018-Sep-23 00:53N 43°42' E 007°19'0 0.0
2018-Sep-22 17:11N 43°42' E 007°19'0 0.0
2018-Sep-22 17:02N 43°42' E 007°19'0 1.5
2018-Sep-22 16:52N 43°41' E 007°19'1 0.4
2018-Sep-22 14:14N 43°41' E 007°20'0 0.0
2018-Sep-22 13:54N 43°41' E 007°20'0 0.0
2018-Sep-22 13:20N 43°41' E 007°20'0 0.0
2018-Sep-22 13:02N 43°41' E 007°20'0 0.0
2018-Sep-22 12:53N 43°41' E 007°20'0 0.0
2018-Sep-22 12:26N 43°41' E 007°20'0 0.0
2018-Sep-22 12:03N 43°41' E 007°20'0 0.1
2018-Sep-22 11:56N 43°41' E 007°20'1 0.6
2018-Sep-22 09:56N 43°40' E 007°20'2 2.4
2018-Sep-22 09:17N 43°42' E 007°19'0 0.0
2018-Sep-22 05:59N 43°42' E 007°19'0 0.6
2018-Sep-22 05:22N 43°42' E 007°19'0 0.0
2018-Sep-22 04:49N 43°42' E 007°19'0 0.0
2018-Sep-22 04:25N 43°42' E 007°19'0 0.0
2018-Sep-22 02:31N 43°42' E 007°19'0 0.0
2018-Sep-22 02:28N 43°42' E 007°19'0 0.0
2018-Sep-22 00:22N 43°42' E 007°19'0 0.0
2018-Sep-21 21:43N 43°42' E 007°19'0 0.0
2018-Sep-21 13:52N 43°42' E 007°19'0 0.0
2018-Sep-21 13:07N 43°42' E 007°19'0 0.0
2018-Sep-21 12:46N 43°42' E 007°19'0 0.0
2018-Sep-21 12:28N 43°42' E 007°19'0 0.0
2018-Sep-21 12:01N 43°42' E 007°19'0 0.1
2018-Sep-21 11:55N 43°42' E 007°19'0 0.0
2018-Sep-21 11:25N 43°42' E 007°19'0 0.0
2018-Sep-21 10:22N 43°42' E 007°19'0 0.0
2018-Sep-21 01:49N 43°42' E 007°19'0 0.0
2018-Sep-21 00:28N 43°42' E 007°19'0 0.0
2018-Sep-20 23:04N 43°42' E 007°19'1 0.1
2018-Sep-20 16:12N 43°41' E 007°19'210.4
2018-Sep-20 16:02N 43°40' E 007°18'0 9.3
2018-Sep-20 16:00N 43°40' E 007°17'5 9.2
2018-Sep-20 15:30N 43°36' E 007°13'  
2018-Sep-17 17:34N 43°33' E 007°07'0 0.0
2018-Sep-17 17:22N 43°33' E 007°07'0 0.0
2018-Sep-17 17:01N 43°33' E 007°07'0 0.1
2018-Sep-17 16:58N 43°33' E 007°07'0 0.0
2018-Sep-17 16:28N 43°33' E 007°07'0 0.0
2018-Sep-17 16:01N 43°33' E 007°07'0 0.1
2018-Sep-17 15:58N 43°33' E 007°07'0 0.0
2018-Sep-17 15:28N 43°33' E 007°07'0 0.0
2018-Sep-17 14:55N 43°33' E 007°07'0 0.0
2018-Sep-17 14:28N 43°33' E 007°07'0 0.0
2018-Sep-17 13:58N 43°33' E 007°07'0 0.0
2018-Sep-17 13:22N 43°33' E 007°07'0 0.0
2018-Sep-17 13:01N 43°33' E 007°07'0 0.0
2018-Sep-17 12:58N 43°33' E 007°07'0 0.0
2018-Sep-17 12:28N 43°33' E 007°07'0 0.0
2018-Sep-17 11:58N 43°33' E 007°07'0 0.0
2018-Sep-17 11:28N 43°33' E 007°07'0 0.0
2018-Sep-17 11:01N 43°33' E 007°07'0 0.1
2018-Sep-17 10:58N 43°33' E 007°07'0 0.0
2018-Sep-17 10:25N 43°33' E 007°07'0 0.0
2018-Sep-17 10:01N 43°33' E 007°07'0 0.0
2018-Sep-17 09:55N 43°33' E 007°07'0 0.0
2018-Sep-17 09:28N 43°33' E 007°07'0 0.0
2018-Sep-17 09:01N 43°33' E 007°07'0 0.0
2018-Sep-17 08:49N 43°33' E 007°07'0 0.0
2018-Sep-17 08:28N 43°33' E 007°07'0 0.1
2018-Sep-17 08:03N 43°33' E 007°07'0 0.8
2018-Sep-17 08:00N 43°33' E 007°07'4 0.2
2018-Sep-16 07:07N 43°32' E 007°02'  
Track history (hours):
 
Tides and Currents Weather Stations Pressure Air Temp Water Temp Dewpoint Dewpoint Depression Visibility Wind Speed Wind Dir Waves Ship Positions

Parafrase

Last reported at 2018-Sep-23 02:35 UTC. Time now 2018-Sep-23 04:44 UTC.
Position N 43°42' E 007°19'.

Length 13 m.

Type: Sailing vessel. MMSI: 227214510.

Date/timePositionNaut miles runAvg speedWind from/ knotsBaromVisibWave heightAir tempDewpointWater temp
2018-Sep-23 02:35N 43°42' E 007°19'0 0.0
2018-Sep-23 02:29N 43°42' E 007°19'0 0.0
2018-Sep-23 01:59N 43°42' E 007°19'0 0.0
2018-Sep-23 01:14N 43°42' E 007°19'0 0.0
2018-Sep-23 00:53N 43°42' E 007°19'0 0.0
2018-Sep-22 17:11N 43°42' E 007°19'0 0.0
2018-Sep-22 17:02N 43°42' E 007°19'0 1.5
2018-Sep-22 16:52N 43°41' E 007°19'1 0.4
2018-Sep-22 14:14N 43°41' E 007°20'0 0.0
2018-Sep-22 13:54N 43°41' E 007°20'0 0.0
2018-Sep-22 13:20N 43°41' E 007°20'0 0.0
2018-Sep-22 13:02N 43°41' E 007°20'0 0.0
2018-Sep-22 12:53N 43°41' E 007°20'0 0.0
2018-Sep-22 12:26N 43°41' E 007°20'0 0.0
2018-Sep-22 12:03N 43°41' E 007°20'0 0.1
2018-Sep-22 11:56N 43°41' E 007°20'1 0.6
2018-Sep-22 09:56N 43°40' E 007°20'2 2.4
2018-Sep-22 09:17N 43°42' E 007°19'0 0.0
2018-Sep-22 05:59N 43°42' E 007°19'0 0.6
2018-Sep-22 05:22N 43°42' E 007°19'0 0.0
2018-Sep-22 04:49N 43°42' E 007°19'0 0.0
2018-Sep-22 04:25N 43°42' E 007°19'0 0.0
2018-Sep-22 02:31N 43°42' E 007°19'0 0.0
2018-Sep-22 02:28N 43°42' E 007°19'0 0.0
2018-Sep-22 00:22N 43°42' E 007°19'0 0.0
2018-Sep-21 21:43N 43°42' E 007°19'0 0.0
2018-Sep-21 13:52N 43°42' E 007°19'0 0.0
2018-Sep-21 13:07N 43°42' E 007°19'0 0.0
2018-Sep-21 12:46N 43°42' E 007°19'0 0.0
2018-Sep-21 12:28N 43°42' E 007°19'0 0.0
2018-Sep-21 12:01N 43°42' E 007°19'0 0.1
2018-Sep-21 11:55N 43°42' E 007°19'0 0.0
2018-Sep-21 11:25N 43°42' E 007°19'0 0.0
2018-Sep-21 10:22N 43°42' E 007°19'0 0.0
2018-Sep-21 01:49N 43°42' E 007°19'0 0.0
2018-Sep-21 00:28N 43°42' E 007°19'0 0.0
2018-Sep-20 23:04N 43°42' E 007°19'1 0.1
2018-Sep-20 16:12N 43°41' E 007°19'210.4
2018-Sep-20 16:02N 43°40' E 007°18'0 9.3
2018-Sep-20 16:00N 43°40' E 007°17'5 9.2
2018-Sep-20 15:30N 43°36' E 007°13'  
2018-Sep-17 17:34N 43°33' E 007°07'0 0.0
2018-Sep-17 17:22N 43°33' E 007°07'0 0.0
2018-Sep-17 17:01N 43°33' E 007°07'0 0.1
2018-Sep-17 16:58N 43°33' E 007°07'0 0.0
2018-Sep-17 16:28N 43°33' E 007°07'0 0.0
2018-Sep-17 16:01N 43°33' E 007°07'0 0.1
2018-Sep-17 15:58N 43°33' E 007°07'0 0.0
2018-Sep-17 15:28N 43°33' E 007°07'0 0.0
2018-Sep-17 14:55N 43°33' E 007°07'0 0.0
2018-Sep-17 14:28N 43°33' E 007°07'0 0.0
2018-Sep-17 13:58N 43°33' E 007°07'0 0.0
2018-Sep-17 13:22N 43°33' E 007°07'0 0.0
2018-Sep-17 13:01N 43°33' E 007°07'0 0.0
2018-Sep-17 12:58N 43°33' E 007°07'0 0.0
2018-Sep-17 12:28N 43°33' E 007°07'0 0.0
2018-Sep-17 11:58N 43°33' E 007°07'0 0.0
2018-Sep-17 11:28N 43°33' E 007°07'0 0.0
2018-Sep-17 11:01N 43°33' E 007°07'0 0.1
2018-Sep-17 10:58N 43°33' E 007°07'0 0.0
2018-Sep-17 10:25N 43°33' E 007°07'0 0.0
2018-Sep-17 10:01N 43°33' E 007°07'0 0.0
2018-Sep-17 09:55N 43°33' E 007°07'0 0.0
2018-Sep-17 09:28N 43°33' E 007°07'0 0.0
2018-Sep-17 09:01N 43°33' E 007°07'0 0.0
2018-Sep-17 08:49N 43°33' E 007°07'0 0.0
2018-Sep-17 08:28N 43°33' E 007°07'0 0.1
2018-Sep-17 08:03N 43°33' E 007°07'0 0.8
2018-Sep-17 08:00N 43°33' E 007°07'4 0.2
2018-Sep-16 07:07N 43°32' E 007°02'  

Dump ship's entire track history